sensor_id;sensor_type;location;lat;lon;timestamp;pressure;altitude;pressure_sealevel;temperature;humidity
10988;BME280;5547;42.672;23.230;2023-04-28T00:00:55;93420.00;;;1.72;75.58
10988;BME280;5547;42.672;23.230;2023-04-28T00:03:55;93436.38;;;1.68;78.39
10988;BME280;5547;42.672;23.230;2023-04-28T00:06:57;93480.16;;;1.84;76.76
10988;BME280;5547;42.672;23.230;2023-04-28T00:09:57;93478.22;;;1.81;77.00
10988;BME280;5547;42.672;23.230;2023-04-28T00:12:58;93402.91;;;1.23;79.02
10988;BME280;5547;42.672;23.230;2023-04-28T00:15:58;93451.31;;;1.64;79.27
10988;BME280;5547;42.672;23.230;2023-04-28T00:18:59;93477.25;;;1.89;80.05
10988;BME280;5547;42.672;23.230;2023-04-28T00:21:59;93466.00;;;1.88;76.03
10988;BME280;5547;42.672;23.230;2023-04-28T00:25:00;93476.84;;;1.87;77.63
10988;BME280;5547;42.672;23.230;2023-04-28T00:28:00;93473.78;;;1.65;78.34
10988;BME280;5547;42.672;23.230;2023-04-28T00:31:01;93476.59;;;1.57;77.97
10988;BME280;5547;42.672;23.230;2023-04-28T00:34:01;93472.75;;;1.51;78.46
10988;BME280;5547;42.672;23.230;2023-04-28T00:37:02;93476.38;;;1.46;79.56
10988;BME280;5547;42.672;23.230;2023-04-28T00:40:04;93488.53;;;1.54;78.00
10988;BME280;5547;42.672;23.230;2023-04-28T00:43:04;93488.63;;;1.58;77.86
10988;BME280;5547;42.672;23.230;2023-04-28T00:46:05;93490.22;;;1.62;76.59
10988;BME280;5547;42.672;23.230;2023-04-28T00:49:05;93480.19;;;1.49;78.25
10988;BME280;5547;42.672;23.230;2023-04-28T00:52:06;93480.09;;;1.45;77.35
10988;BME280;5547;42.672;23.230;2023-04-28T00:55:08;93446.75;;;1.26;77.45
10988;BME280;5547;42.672;23.230;2023-04-28T00:58:08;93488.91;;;1.53;76.30
10988;BME280;5547;42.672;23.230;2023-04-28T01:01:09;93494.94;;;1.57;75.72
10988;BME280;5547;42.672;23.230;2023-04-28T01:04:09;93466.84;;;1.38;75.01
10988;BME280;5547;42.672;23.230;2023-04-28T01:07:10;93497.94;;;1.55;74.96
10988;BME280;5547;42.672;23.230;2023-04-28T01:10:11;93493.03;;;1.54;75.08
10988;BME280;5547;42.672;23.230;2023-04-28T01:13:11;93496.25;;;1.47;74.75
10988;BME280;5547;42.672;23.230;2023-04-28T01:16:11;93488.97;;;1.40;74.22
10988;BME280;5547;42.672;23.230;2023-04-28T01:19:17;93470.78;;;0.96;78.32
10988;BME280;5547;42.672;23.230;2023-04-28T01:22:19;93501.34;;;1.24;76.37
10988;BME280;5547;42.672;23.230;2023-04-28T01:25:20;93500.34;;;1.13;77.51
10988;BME280;5547;42.672;23.230;2023-04-28T01:28:20;93448.06;;;0.84;76.65
10988;BME280;5547;42.672;23.230;2023-04-28T01:31:21;93472.38;;;0.85;81.46
10988;BME280;5547;42.672;23.230;2023-04-28T01:34:21;93444.53;;;0.61;80.22
10988;BME280;5547;42.672;23.230;2023-04-28T01:37:21;93502.72;;;0.86;80.14
10988;BME280;5547;42.672;23.230;2023-04-28T01:40:22;93494.78;;;0.82;81.81
10988;BME280;5547;42.672;23.230;2023-04-28T01:43:23;93463.41;;;0.38;84.13
10988;BME280;5547;42.672;23.230;2023-04-28T01:46:23;93478.25;;;0.34;85.34
10988;BME280;5547;42.672;23.230;2023-04-28T01:49:23;93466.13;;;0.14;87.83
10988;BME280;5547;42.672;23.230;2023-04-28T01:52:24;93504.72;;;0.17;90.43
10988;BME280;5547;42.672;23.230;2023-04-28T01:55:26;93451.25;;;-0.26;91.12
10988;BME280;5547;42.672;23.230;2023-04-28T01:58:26;93496.50;;;0.03;92.05
10988;BME280;5547;42.672;23.230;2023-04-28T02:01:27;93488.84;;;0.10;90.00
10988;BME280;5547;42.672;23.230;2023-04-28T02:04:27;93483.47;;;0.34;94.84
10988;BME280;5547;42.672;23.230;2023-04-28T02:07:28;93501.25;;;0.57;86.68
10988;BME280;5547;42.672;23.230;2023-04-28T02:10:28;93484.16;;;0.31;91.46
10988;BME280;5547;42.672;23.230;2023-04-28T02:13:28;93507.59;;;0.56;88.27
10988;BME280;5547;42.672;23.230;2023-04-28T02:16:29;93502.88;;;0.77;87.29
10988;BME280;5547;42.672;23.230;2023-04-28T02:19:29;93482.41;;;0.35;88.11
10988;BME280;5547;42.672;23.230;2023-04-28T02:22:30;93423.97;;;-0.13;89.80
10988;BME280;5547;42.672;23.230;2023-04-28T02:25:30;93516.31;;;0.32;91.01
10988;BME280;5547;42.672;23.230;2023-04-28T02:28:31;93512.94;;;0.31;91.41
10988;BME280;5547;42.672;23.230;2023-04-28T02:31:32;93501.06;;;0.06;92.16
10988;BME280;5547;42.672;23.230;2023-04-28T02:34:33;93520.09;;;0.34;92.40
10988;BME280;5547;42.672;23.230;2023-04-28T02:37:33;93508.84;;;0.18;91.64
10988;BME280;5547;42.672;23.230;2023-04-28T02:40:34;93523.47;;;0.19;92.08
10988;BME280;5547;42.672;23.230;2023-04-28T02:43:35;93520.72;;;0.15;92.43
10988;BME280;5547;42.672;23.230;2023-04-28T02:46:36;93527.16;;;0.18;92.81
10988;BME280;5547;42.672;23.230;2023-04-28T02:49:36;93428.94;;;-0.64;92.80
10988;BME280;5547;42.672;23.230;2023-04-28T02:52:37;93530.88;;;0.05;94.80
10988;BME280;5547;42.672;23.230;2023-04-28T02:55:37;93527.03;;;-0.14;96.18
10988;BME280;5547;42.672;23.230;2023-04-28T02:58:38;93533.34;;;-0.15;95.88
10988;BME280;5547;42.672;23.230;2023-04-28T03:01:38;93535.88;;;-0.18;96.17
10988;BME280;5547;42.672;23.230;2023-04-28T03:04:38;93458.78;;;-0.77;96.82
10988;BME280;5547;42.672;23.230;2023-04-28T03:07:39;93548.03;;;-0.10;95.08
10988;BME280;5547;42.672;23.230;2023-04-28T03:10:39;93541.75;;;-0.22;94.72
10988;BME280;5547;42.672;23.230;2023-04-28T03:13:40;93523.13;;;-0.20;94.89
10988;BME280;5547;42.672;23.230;2023-04-28T03:16:40;93541.59;;;0.28;88.42
10988;BME280;5547;42.672;23.230;2023-04-28T03:19:41;93529.38;;;0.04;89.81
10988;BME280;5547;42.672;23.230;2023-04-28T03:22:41;93536.28;;;-0.04;90.39
10988;BME280;5547;42.672;23.230;2023-04-28T03:25:41;93535.53;;;-0.17;91.44
10988;BME280;5547;42.672;23.230;2023-04-28T03:28:42;93566.50;;;0.09;90.10
10988;BME280;5547;42.672;23.230;2023-04-28T03:31:43;93517.28;;;-0.29;90.37
10988;BME280;5547;42.672;23.230;2023-04-28T03:34:43;93579.06;;;0.04;88.67
10988;BME280;5547;42.672;23.230;2023-04-28T03:37:43;93579.31;;;-0.02;90.83
10988;BME280;5547;42.672;23.230;2023-04-28T03:40:44;93589.22;;;-0.07;91.13
10988;BME280;5547;42.672;23.230;2023-04-28T03:43:45;93544.28;;;-0.37;91.33
10988;BME280;5547;42.672;23.230;2023-04-28T03:46:45;93593.00;;;0.08;91.42
10988;BME280;5547;42.672;23.230;2023-04-28T03:49:45;93515.75;;;-0.43;90.25
10988;BME280;5547;42.672;23.230;2023-04-28T03:52:46;93564.69;;;-0.03;90.60
10988;BME280;5547;42.672;23.230;2023-04-28T03:55:46;93589.84;;;0.71;82.48
10988;BME280;5547;42.672;23.230;2023-04-28T03:58:47;93597.94;;;1.10;78.95
10988;BME280;5547;42.672;23.230;2023-04-28T04:01:47;93525.25;;;0.75;78.25
10988;BME280;5547;42.672;23.230;2023-04-28T04:04:48;93558.38;;;0.99;77.69
10988;BME280;5547;42.672;23.230;2023-04-28T04:07:48;93600.81;;;1.52;78.48
10988;BME280;5547;42.672;23.230;2023-04-28T04:10:48;93616.06;;;1.62;79.07
10988;BME280;5547;42.672;23.230;2023-04-28T04:13:49;93599.97;;;1.80;74.03
10988;BME280;5547;42.672;23.230;2023-04-28T04:16:49;93592.16;;;1.99;72.09
10988;BME280;5547;42.672;23.230;2023-04-28T04:19:50;93622.16;;;2.37;71.56
10988;BME280;5547;42.672;23.230;2023-04-28T04:22:50;93615.97;;;2.45;70.61
10988;BME280;5547;42.672;23.230;2023-04-28T04:25:50;93519.59;;;1.87;70.52
10988;BME280;5547;42.672;23.230;2023-04-28T04:28:51;93631.72;;;2.84;69.45
10988;BME280;5547;42.672;23.230;2023-04-28T04:31:51;93639.50;;;3.00;67.71
10988;BME280;5547;42.672;23.230;2023-04-28T04:34:52;93641.59;;;3.10;68.01
10988;BME280;5547;42.672;23.230;2023-04-28T04:37:52;93571.84;;;2.93;67.39
10988;BME280;5547;42.672;23.230;2023-04-28T04:40:52;93643.41;;;3.29;66.42
10988;BME280;5547;42.672;23.230;2023-04-28T04:43:53;93557.75;;;2.82;67.01
10988;BME280;5547;42.672;23.230;2023-04-28T04:46:53;93601.47;;;3.36;66.84
10988;BME280;5547;42.672;23.230;2023-04-28T04:49:54;93661.19;;;3.59;65.44
10988;BME280;5547;42.672;23.230;2023-04-28T04:52:55;93657.22;;;3.92;65.55
10988;BME280;5547;42.672;23.230;2023-04-28T04:55:56;93653.63;;;4.04;69.08
10988;BME280;5547;42.672;23.230;2023-04-28T04:58:57;93667.38;;;3.93;64.13
10988;BME280;5547;42.672;23.230;2023-04-28T05:01:57;93614.69;;;3.63;64.68
10988;BME280;5547;42.672;23.230;2023-04-28T05:04:58;93667.69;;;4.15;64.39
10988;BME280;5547;42.672;23.230;2023-04-28T05:07:58;93666.13;;;4.10;64.27
10988;BME280;5547;42.672;23.230;2023-04-28T05:10:59;93608.72;;;3.43;64.46
10988;BME280;5547;42.672;23.230;2023-04-28T05:13:59;93639.94;;;3.94;63.96
10988;BME280;5547;42.672;23.230;2023-04-28T05:16:59;93659.16;;;4.21;63.77
10988;BME280;5547;42.672;23.230;2023-04-28T05:20:00;93673.84;;;4.53;63.80
10988;BME280;5547;42.672;23.230;2023-04-28T05:23:00;93663.88;;;4.66;63.08
10988;BME280;5547;42.672;23.230;2023-04-28T05:26:02;93684.53;;;4.94;62.42
10988;BME280;5547;42.672;23.230;2023-04-28T05:29:03;93637.41;;;4.89;61.43
10988;BME280;5547;42.672;23.230;2023-04-28T05:32:03;93664.25;;;4.98;61.98
10988;BME280;5547;42.672;23.230;2023-04-28T05:35:04;93651.44;;;4.62;61.79
10988;BME280;5547;42.672;23.230;2023-04-28T05:38:04;93679.56;;;5.19;60.69
10988;BME280;5547;42.672;23.230;2023-04-28T05:41:06;93629.78;;;4.46;60.43
10988;BME280;5547;42.672;23.230;2023-04-28T05:44:06;93658.88;;;5.21;59.87
10988;BME280;5547;42.672;23.230;2023-04-28T05:47:06;93666.84;;;5.28;61.04
10988;BME280;5547;42.672;23.230;2023-04-28T05:50:07;93644.13;;;4.82;60.15
10988;BME280;5547;42.672;23.230;2023-04-28T05:53:08;93602.63;;;4.42;57.68
10988;BME280;5547;42.672;23.230;2023-04-28T05:56:08;93649.69;;;5.08;58.92
10988;BME280;5547;42.672;23.230;2023-04-28T05:59:09;93687.44;;;5.53;59.38
10988;BME280;5547;42.672;23.230;2023-04-28T06:02:09;93686.53;;;5.38;58.01
10988;BME280;5547;42.672;23.230;2023-04-28T06:05:10;93648.06;;;5.33;56.79
10988;BME280;5547;42.672;23.230;2023-04-28T06:08:10;93683.19;;;5.41;57.68
10988;BME280;5547;42.672;23.230;2023-04-28T06:11:11;93686.31;;;5.54;56.03
10988;BME280;5547;42.672;23.230;2023-04-28T06:14:11;93689.47;;;5.70;56.11
10988;BME280;5547;42.672;23.230;2023-04-28T06:17:11;93683.41;;;5.66;56.88
10988;BME280;5547;42.672;23.230;2023-04-28T06:20:12;93656.97;;;6.00;56.17
10988;BME280;5547;42.672;23.230;2023-04-28T06:23:13;93653.81;;;5.87;56.98
10988;BME280;5547;42.672;23.230;2023-04-28T06:26:13;93665.28;;;5.61;57.18
10988;BME280;5547;42.672;23.230;2023-04-28T06:29:14;93673.72;;;5.77;55.92
10988;BME280;5547;42.672;23.230;2023-04-28T06:32:16;93531.47;;;5.13;55.97
10988;BME280;5547;42.672;23.230;2023-04-28T06:35:16;93644.91;;;5.61;55.81
10988;BME280;5547;42.672;23.230;2023-04-28T06:38:16;93648.22;;;5.92;55.16
10988;BME280;5547;42.672;23.230;2023-04-28T06:41:17;93682.09;;;6.31;54.97
10988;BME280;5547;42.672;23.230;2023-04-28T06:44:17;93653.47;;;5.92;55.58
10988;BME280;5547;42.672;23.230;2023-04-28T06:47:18;93677.75;;;6.64;56.61
10988;BME280;5547;42.672;23.230;2023-04-28T06:50:18;93671.50;;;6.27;54.99
10988;BME280;5547;42.672;23.230;2023-04-28T06:53:18;93687.50;;;6.56;55.56
10988;BME280;5547;42.672;23.230;2023-04-28T06:56:19;93669.25;;;6.33;55.78
10988;BME280;5547;42.672;23.230;2023-04-28T06:59:19;93574.78;;;5.57;55.81
10988;BME280;5547;42.672;23.230;2023-04-28T07:02:20;93668.19;;;5.93;53.31
10988;BME280;5547;42.672;23.230;2023-04-28T07:05:20;93598.53;;;6.05;52.60
10988;BME280;5547;42.672;23.230;2023-04-28T07:08:21;93679.97;;;6.55;52.83
10988;BME280;5547;42.672;23.230;2023-04-28T07:11:21;93670.59;;;6.64;51.29
10988;BME280;5547;42.672;23.230;2023-04-28T07:14:22;93690.66;;;6.72;52.74
10988;BME280;5547;42.672;23.230;2023-04-28T07:17:22;93553.31;;;6.10;50.81
10988;BME280;5547;42.672;23.230;2023-04-28T07:20:23;93640.31;;;6.51;50.03
10988;BME280;5547;42.672;23.230;2023-04-28T07:23:23;93683.78;;;6.64;51.91
10988;BME280;5547;42.672;23.230;2023-04-28T07:26:24;93677.50;;;6.87;52.47
10988;BME280;5547;42.672;23.230;2023-04-28T07:29:24;93684.81;;;7.26;51.63
10988;BME280;5547;42.672;23.230;2023-04-28T07:32:27;93661.03;;;7.36;50.86
10988;BME280;5547;42.672;23.230;2023-04-28T07:35:28;93676.81;;;7.08;51.62
10988;BME280;5547;42.672;23.230;2023-04-28T07:38:28;93682.22;;;7.44;51.38
10988;BME280;5547;42.672;23.230;2023-04-28T07:41:29;93680.75;;;7.53;49.58
10988;BME280;5547;42.672;23.230;2023-04-28T07:44:30;93676.94;;;7.54;48.43
10988;BME280;5547;42.672;23.230;2023-04-28T07:47:30;93642.47;;;7.22;49.12
10988;BME280;5547;42.672;23.230;2023-04-28T07:50:31;93618.66;;;7.22;48.70
10988;BME280;5547;42.672;23.230;2023-04-28T07:53:32;93664.91;;;7.86;49.98
10988;BME280;5547;42.672;23.230;2023-04-28T07:56:33;93653.16;;;7.72;46.84
10988;BME280;5547;42.672;23.230;2023-04-28T07:59:33;93667.16;;;7.73;47.74
10988;BME280;5547;42.672;23.230;2023-04-28T08:02:34;93680.03;;;8.21;47.70
10988;BME280;5547;42.672;23.230;2023-04-28T08:05:34;93676.25;;;8.00;45.22
10988;BME280;5547;42.672;23.230;2023-04-28T08:08:35;93677.78;;;8.09;48.26
10988;BME280;5547;42.672;23.230;2023-04-28T08:11:35;93673.22;;;8.34;49.14
10988;BME280;5547;42.672;23.230;2023-04-28T08:14:36;93680.34;;;8.73;47.58
10988;BME280;5547;42.672;23.230;2023-04-28T08:17:36;93670.97;;;8.40;45.96
10988;BME280;5547;42.672;23.230;2023-04-28T08:20:37;93615.69;;;8.10;45.86
10988;BME280;5547;42.672;23.230;2023-04-28T08:23:37;93671.66;;;8.73;46.55
10988;BME280;5547;42.672;23.230;2023-04-28T08:26:37;93690.66;;;8.43;44.48
10988;BME280;5547;42.672;23.230;2023-04-28T08:29:38;93647.47;;;8.24;46.50
10988;BME280;5547;42.672;23.230;2023-04-28T08:32:39;93680.03;;;7.89;46.95
10988;BME280;5547;42.672;23.230;2023-04-28T08:35:39;93657.31;;;8.34;46.91
10988;BME280;5547;42.672;23.230;2023-04-28T08:38:40;93662.97;;;8.65;47.59
10988;BME280;5547;42.672;23.230;2023-04-28T08:41:41;93665.50;;;9.08;46.37
10988;BME280;5547;42.672;23.230;2023-04-28T08:44:41;93668.88;;;9.16;46.35
10988;BME280;5547;42.672;23.230;2023-04-28T08:47:42;93674.63;;;8.89;47.73
10988;BME280;5547;42.672;23.230;2023-04-28T08:50:53;93663.94;;;9.14;46.19
10988;BME280;5547;42.672;23.230;2023-04-28T08:53:54;93661.25;;;9.21;46.81
10988;BME280;5547;42.672;23.230;2023-04-28T08:56:56;93664.19;;;9.38;47.13
10988;BME280;5547;42.672;23.230;2023-04-28T08:59:57;93661.50;;;9.52;45.62
10988;BME280;5547;42.672;23.230;2023-04-28T09:02:57;93675.94;;;9.48;47.03
10988;BME280;5547;42.672;23.230;2023-04-28T09:05:58;93658.25;;;9.16;44.87
10988;BME280;5547;42.672;23.230;2023-04-28T09:09:23;93612.72;;;9.24;46.04
10988;BME280;5547;42.672;23.230;2023-04-28T09:12:35;93653.91;;;9.51;45.37
10988;BME280;5547;42.672;23.230;2023-04-28T09:15:38;93635.34;;;9.43;43.83
10988;BME280;5547;42.672;23.230;2023-04-28T09:18:55;93622.50;;;9.35;44.96
10988;BME280;5547;42.672;23.230;2023-04-28T09:21:56;93645.25;;;9.39;43.53
10988;BME280;5547;42.672;23.230;2023-04-28T09:25:10;93618.81;;;9.14;43.52
10988;BME280;5547;42.672;23.230;2023-04-28T09:28:20;93643.63;;;9.56;43.88
10988;BME280;5547;42.672;23.230;2023-04-28T09:31:22;93620.97;;;9.93;43.24
10988;BME280;5547;42.672;23.230;2023-04-28T09:34:24;93615.72;;;9.86;44.87
10988;BME280;5547;42.672;23.230;2023-04-28T09:37:26;93632.81;;;9.81;44.85
10988;BME280;5547;42.672;23.230;2023-04-28T09:40:29;93621.78;;;9.86;42.80
10988;BME280;5547;42.672;23.230;2023-04-28T09:43:34;93627.16;;;9.79;42.67
10988;BME280;5547;42.672;23.230;2023-04-28T09:46:34;93592.09;;;9.50;42.16
10988;BME280;5547;42.672;23.230;2023-04-28T09:49:52;93549.72;;;9.29;41.18
10988;BME280;5547;42.672;23.230;2023-04-28T09:52:55;93617.50;;;10.03;41.32
10988;BME280;5547;42.672;23.230;2023-04-28T09:55:58;93612.63;;;9.91;42.43
10988;BME280;5547;42.672;23.230;2023-04-28T09:59:00;93612.41;;;10.61;45.18
10988;BME280;5547;42.672;23.230;2023-04-28T10:02:03;93594.63;;;10.09;41.47
10988;BME280;5547;42.672;23.230;2023-04-28T10:05:05;93589.16;;;10.31;40.93
10988;BME280;5547;42.672;23.230;2023-04-28T10:08:10;93576.59;;;10.35;40.92
10988;BME280;5547;42.672;23.230;2023-04-28T10:11:11;93592.72;;;10.14;40.82
10988;BME280;5547;42.672;23.230;2023-04-28T10:14:12;93600.09;;;10.40;41.63
10988;BME280;5547;42.672;23.230;2023-04-28T10:17:13;93556.53;;;10.23;40.55
10988;BME280;5547;42.672;23.230;2023-04-28T10:20:16;93597.06;;;10.38;41.96
10988;BME280;5547;42.672;23.230;2023-04-28T10:27:01;93578.06;;;10.40;40.69
10988;BME280;5547;42.672;23.230;2023-04-28T10:36:46;93578.13;;;10.67;39.92
10988;BME280;5547;42.672;23.230;2023-04-28T10:47:03;93567.25;;;11.19;37.96
10988;BME280;5547;42.672;23.230;2023-04-28T10:50:06;93568.56;;;11.34;38.36
10988;BME280;5547;42.672;23.230;2023-04-28T10:53:06;93553.13;;;11.22;38.23
10988;BME280;5547;42.672;23.230;2023-04-28T10:56:07;93565.38;;;11.67;38.37
10988;BME280;5547;42.672;23.230;2023-04-28T10:59:24;93557.09;;;11.38;38.12
10988;BME280;5547;42.672;23.230;2023-04-28T11:02:35;93544.78;;;11.20;36.50
10988;BME280;5547;42.672;23.230;2023-04-28T11:05:36;93554.69;;;11.47;35.88
10988;BME280;5547;42.672;23.230;2023-04-28T11:08:37;93553.97;;;10.88;35.98
10988;BME280;5547;42.672;23.230;2023-04-28T11:11:38;93562.19;;;11.52;34.92
10988;BME280;5547;42.672;23.230;2023-04-28T11:14:39;93561.00;;;11.29;36.82
10988;BME280;5547;42.672;23.230;2023-04-28T11:17:40;93430.34;;;10.66;35.96
10988;BME280;5547;42.672;23.230;2023-04-28T11:20:43;93495.34;;;11.19;36.15
10988;BME280;5547;42.672;23.230;2023-04-28T11:23:46;93554.59;;;11.50;36.37
10988;BME280;5547;42.672;23.230;2023-04-28T11:26:47;93503.22;;;11.26;35.44
10988;BME280;5547;42.672;23.230;2023-04-28T11:29:47;93542.91;;;11.44;35.48
10988;BME280;5547;42.672;23.230;2023-04-28T11:32:49;93541.97;;;11.82;35.67
10988;BME280;5547;42.672;23.230;2023-04-28T11:35:50;93500.59;;;11.50;35.96
10988;BME280;5547;42.672;23.230;2023-04-28T11:38:51;93537.09;;;12.00;37.82
10988;BME280;5547;42.672;23.230;2023-04-28T11:41:52;93518.13;;;11.47;35.79
10988;BME280;5547;42.672;23.230;2023-04-28T11:44:53;93520.16;;;12.10;34.65
10988;BME280;5547;42.672;23.230;2023-04-28T11:47:53;93521.41;;;12.26;35.39
10988;BME280;5547;42.672;23.230;2023-04-28T11:50:53;93487.66;;;12.39;34.46
10988;BME280;5547;42.672;23.230;2023-04-28T11:53:54;93522.72;;;12.57;34.35
10988;BME280;5547;42.672;23.230;2023-04-28T11:56:55;93522.47;;;12.32;33.90
10988;BME280;5547;42.672;23.230;2023-04-28T12:00:15;93521.00;;;12.47;33.38
10988;BME280;5547;42.672;23.230;2023-04-28T12:03:21;93521.91;;;12.21;34.88
10988;BME280;5547;42.672;23.230;2023-04-28T12:06:21;93514.69;;;12.17;34.60
10988;BME280;5547;42.672;23.230;2023-04-28T12:09:22;93519.44;;;12.70;35.71
10988;BME280;5547;42.672;23.230;2023-04-28T12:12:29;93507.81;;;12.60;34.30
10988;BME280;5547;42.672;23.230;2023-04-28T12:15:39;93509.25;;;12.65;32.73
10988;BME280;5547;42.672;23.230;2023-04-28T12:18:57;93506.28;;;12.79;33.88
10988;BME280;5547;42.672;23.230;2023-04-28T12:22:00;93502.13;;;12.38;33.16
10988;BME280;5547;42.672;23.230;2023-04-28T12:25:09;93495.28;;;12.77;36.21
10988;BME280;5547;42.672;23.230;2023-04-28T12:28:10;93488.44;;;12.76;34.26
10988;BME280;5547;42.672;23.230;2023-04-28T12:31:10;93496.59;;;13.21;33.76
10988;BME280;5547;42.672;23.230;2023-04-28T12:34:10;93474.69;;;13.30;35.11
10988;BME280;5547;42.672;23.230;2023-04-28T12:37:11;93497.00;;;13.03;33.60
10988;BME280;5547;42.672;23.230;2023-04-28T12:40:12;93467.13;;;13.09;35.28
10988;BME280;5547;42.672;23.230;2023-04-28T12:43:13;93479.81;;;13.21;34.43
10988;BME280;5547;42.672;23.230;2023-04-28T12:46:14;93495.75;;;13.08;34.33
10988;BME280;5547;42.672;23.230;2023-04-28T12:49:14;93484.56;;;12.97;34.79
10988;BME280;5547;42.672;23.230;2023-04-28T12:52:15;93403.22;;;12.85;36.04
10988;BME280;5547;42.672;23.230;2023-04-28T12:55:15;93477.00;;;13.44;34.54
10988;BME280;5547;42.672;23.230;2023-04-28T12:58:16;93477.63;;;13.98;35.46
10988;BME280;5547;42.672;23.230;2023-04-28T13:01:17;93442.00;;;13.72;32.83
10988;BME280;5547;42.672;23.230;2023-04-28T13:04:17;93466.72;;;14.21;33.62
10988;BME280;5547;42.672;23.230;2023-04-28T13:07:18;93444.09;;;13.80;32.87
10988;BME280;5547;42.672;23.230;2023-04-28T13:10:19;93458.75;;;14.05;32.29
10988;BME280;5547;42.672;23.230;2023-04-28T13:13:21;93438.69;;;13.51;33.21
10988;BME280;5547;42.672;23.230;2023-04-28T13:16:22;93418.66;;;13.59;36.35
10988;BME280;5547;42.672;23.230;2023-04-28T13:19:24;93455.88;;;14.12;33.53
10988;BME280;5547;42.672;23.230;2023-04-28T13:22:26;93450.13;;;13.97;32.04
10988;BME280;5547;42.672;23.230;2023-04-28T13:25:26;93459.44;;;13.76;32.77
10988;BME280;5547;42.672;23.230;2023-04-28T13:28:27;93428.91;;;13.44;33.64
10988;BME280;5547;42.672;23.230;2023-04-28T13:31:28;93451.06;;;13.45;32.57
10988;BME280;5547;42.672;23.230;2023-04-28T13:34:31;93430.41;;;13.62;33.32
10988;BME280;5547;42.672;23.230;2023-04-28T13:37:32;93446.97;;;13.86;32.82
10988;BME280;5547;42.672;23.230;2023-04-28T13:40:33;93455.28;;;14.34;35.32
10988;BME280;5547;42.672;23.230;2023-04-28T13:43:33;93381.59;;;14.03;33.05
10988;BME280;5547;42.672;23.230;2023-04-28T13:46:34;93392.34;;;13.87;32.23
10988;BME280;5547;42.672;23.230;2023-04-28T13:49:34;93430.25;;;14.40;32.30
10988;BME280;5547;42.672;23.230;2023-04-28T13:52:36;93435.34;;;13.93;32.39
10988;BME280;5547;42.672;23.230;2023-04-28T13:55:36;93426.81;;;14.27;33.92
10988;BME280;5547;42.672;23.230;2023-04-28T13:58:37;93440.69;;;13.93;32.27
10988;BME280;5547;42.672;23.230;2023-04-28T14:01:38;93374.63;;;13.64;31.96
10988;BME280;5547;42.672;23.230;2023-04-28T14:04:38;93399.50;;;13.77;32.53
10988;BME280;5547;42.672;23.230;2023-04-28T14:07:39;93367.44;;;13.90;32.63
10988;BME280;5547;42.672;23.230;2023-04-28T14:10:39;93387.09;;;13.83;32.71
10988;BME280;5547;42.672;23.230;2023-04-28T14:13:40;93432.69;;;13.93;32.38
10988;BME280;5547;42.672;23.230;2023-04-28T14:16:40;93432.91;;;14.27;32.55
10988;BME280;5547;42.672;23.230;2023-04-28T14:19:41;93434.50;;;15.05;30.47
10988;BME280;5547;42.672;23.230;2023-04-28T14:22:41;93321.19;;;14.83;32.00
10988;BME280;5547;42.672;23.230;2023-04-28T14:25:42;93413.88;;;15.53;30.28
10988;BME280;5547;42.672;23.230;2023-04-28T14:28:42;93417.63;;;15.43;29.85
10988;BME280;5547;42.672;23.230;2023-04-28T14:31:42;93415.94;;;15.84;29.83
10988;BME280;5547;42.672;23.230;2023-04-28T14:34:43;93413.88;;;16.54;28.80
10988;BME280;5547;42.672;23.230;2023-04-28T14:37:43;93356.78;;;16.63;27.41
10988;BME280;5547;42.672;23.230;2023-04-28T14:40:44;93366.88;;;15.62;29.74
10988;BME280;5547;42.672;23.230;2023-04-28T14:43:44;93409.59;;;15.91;28.32
10988;BME280;5547;42.672;23.230;2023-04-28T14:46:45;93395.69;;;15.83;28.76
10988;BME280;5547;42.672;23.230;2023-04-28T14:49:46;93357.63;;;16.82;28.00
10988;BME280;5547;42.672;23.230;2023-04-28T14:52:46;93383.75;;;16.91;28.00
10988;BME280;5547;42.672;23.230;2023-04-28T14:55:47;93414.53;;;16.90;28.39
10988;BME280;5547;42.672;23.230;2023-04-28T14:58:47;93411.66;;;16.84;28.76
10988;BME280;5547;42.672;23.230;2023-04-28T15:01:49;93388.00;;;17.01;27.68
10988;BME280;5547;42.672;23.230;2023-04-28T15:04:57;93412.66;;;16.77;28.33
10988;BME280;5547;42.672;23.230;2023-04-28T15:07:57;93417.94;;;16.15;29.63
10988;BME280;5547;42.672;23.230;2023-04-28T15:10:58;93400.63;;;16.07;29.06
10988;BME280;5547;42.672;23.230;2023-04-28T15:13:58;93382.53;;;16.20;28.33
10988;BME280;5547;42.672;23.230;2023-04-28T15:16:58;93418.78;;;16.56;28.73
10988;BME280;5547;42.672;23.230;2023-04-28T15:19:59;93412.97;;;17.20;27.45
10988;BME280;5547;42.672;23.230;2023-04-28T15:23:00;93417.44;;;16.51;28.86
10988;BME280;5547;42.672;23.230;2023-04-28T15:26:00;93410.22;;;16.39;29.57
10988;BME280;5547;42.672;23.230;2023-04-28T15:29:01;93401.50;;;16.04;29.08
10988;BME280;5547;42.672;23.230;2023-04-28T15:32:02;93319.06;;;14.90;30.26
10988;BME280;5547;42.672;23.230;2023-04-28T15:35:02;93348.28;;;14.98;29.68
10988;BME280;5547;42.672;23.230;2023-04-28T15:38:04;93389.31;;;15.07;30.05
10988;BME280;5547;42.672;23.230;2023-04-28T15:41:04;93386.47;;;14.34;31.81
10988;BME280;5547;42.672;23.230;2023-04-28T15:44:04;93390.16;;;14.11;31.94
10988;BME280;5547;42.672;23.230;2023-04-28T15:47:05;93386.09;;;14.74;32.23
10988;BME280;5547;42.672;23.230;2023-04-28T15:50:07;93359.00;;;14.85;32.23
10988;BME280;5547;42.672;23.230;2023-04-28T15:53:08;93390.66;;;15.25;31.34
10988;BME280;5547;42.672;23.230;2023-04-28T15:56:08;93362.06;;;15.22;31.00
10988;BME280;5547;42.672;23.230;2023-04-28T15:59:08;93383.72;;;15.62;30.60
10988;BME280;5547;42.672;23.230;2023-04-28T16:02:13;93389.41;;;15.64;30.42
10988;BME280;5547;42.672;23.230;2023-04-28T16:05:14;93373.28;;;16.21;29.83
10988;BME280;5547;42.672;23.230;2023-04-28T16:08:14;93391.69;;;15.40;30.11
10988;BME280;5547;42.672;23.230;2023-04-28T16:11:15;93364.03;;;15.78;29.93
10988;BME280;5547;42.672;23.230;2023-04-28T16:14:18;93389.94;;;14.99;30.29
10988;BME280;5547;42.672;23.230;2023-04-28T16:17:18;93385.59;;;13.82;32.39
10988;BME280;5547;42.672;23.230;2023-04-28T16:20:19;93382.25;;;13.49;33.54
10988;BME280;5547;42.672;23.230;2023-04-28T16:23:20;93309.03;;;13.01;33.64